sensor_id;sensor_type;location;lat;lon;timestamp;P1;durP1;ratioP1;P2;durP2;ratioP2
4027;SDS011;2028;51.346;12.396;2023-04-15T00:00:42;8.27;;;7.57;;
4027;SDS011;2028;51.346;12.396;2023-04-15T00:03:08;7.97;;;7.23;;
4027;SDS011;2028;51.346;12.396;2023-04-15T00:05:34;8.10;;;7.40;;
4027;SDS011;2028;51.346;12.396;2023-04-15T00:08:00;7.83;;;7.23;;
4027;SDS011;2028;51.346;12.396;2023-04-15T00:10:27;8.80;;;8.10;;
4027;SDS011;2028;51.346;12.396;2023-04-15T00:12:53;7.50;;;6.93;;
4027;SDS011;2028;51.346;12.396;2023-04-15T00:15:19;8.27;;;7.63;;
4027;SDS011;2028;51.346;12.396;2023-04-15T00:17:48;7.83;;;7.20;;
4027;SDS011;2028;51.346;12.396;2023-04-15T00:20:16;8.23;;;7.53;;
4027;SDS011;2028;51.346;12.396;2023-04-15T00:22:42;8.87;;;8.17;;
4027;SDS011;2028;51.346;12.396;2023-04-15T00:25:08;9.53;;;8.83;;
4027;SDS011;2028;51.346;12.396;2023-04-15T00:27:34;10.87;;;9.97;;
4027;SDS011;2028;51.346;12.396;2023-04-15T00:30:01;10.67;;;9.87;;
4027;SDS011;2028;51.346;12.396;2023-04-15T00:32:28;10.87;;;9.90;;
4027;SDS011;2028;51.346;12.396;2023-04-15T00:34:54;9.90;;;9.10;;
4027;SDS011;2028;51.346;12.396;2023-04-15T00:37:20;9.37;;;8.63;;
4027;SDS011;2028;51.346;12.396;2023-04-15T00:39:47;10.60;;;9.80;;
4027;SDS011;2028;51.346;12.396;2023-04-15T00:42:14;11.70;;;10.73;;
4027;SDS011;2028;51.346;12.396;2023-04-15T00:44:41;11.10;;;10.20;;
4027;SDS011;2028;51.346;12.396;2023-04-15T00:47:07;11.13;;;10.23;;
4027;SDS011;2028;51.346;12.396;2023-04-15T00:49:34;10.50;;;9.70;;
4027;SDS011;2028;51.346;12.396;2023-04-15T00:52:00;9.77;;;9.07;;
4027;SDS011;2028;51.346;12.396;2023-04-15T00:54:26;9.40;;;8.63;;
4027;SDS011;2028;51.346;12.396;2023-04-15T00:56:53;8.27;;;7.60;;
4027;SDS011;2028;51.346;12.396;2023-04-15T01:02:04;8.63;;;7.93;;
4027;SDS011;2028;51.346;12.396;2023-04-15T01:04:31;7.83;;;7.23;;
4027;SDS011;2028;51.346;12.396;2023-04-15T01:06:57;7.97;;;7.33;;
4027;SDS011;2028;51.346;12.396;2023-04-15T01:09:24;8.20;;;7.50;;
4027;SDS011;2028;51.346;12.396;2023-04-15T01:11:50;7.80;;;7.20;;
4027;SDS011;2028;51.346;12.396;2023-04-15T01:14:16;8.63;;;7.93;;
4027;SDS011;2028;51.346;12.396;2023-04-15T01:16:43;7.83;;;7.23;;
4027;SDS011;2028;51.346;12.396;2023-04-15T01:19:10;7.63;;;7.03;;
4027;SDS011;2028;51.346;12.396;2023-04-15T01:21:36;7.93;;;7.33;;
4027;SDS011;2028;51.346;12.396;2023-04-15T01:24:07;8.70;;;8.00;;
4027;SDS011;2028;51.346;12.396;2023-04-15T01:26:38;8.00;;;7.30;;
4027;SDS011;2028;51.346;12.396;2023-04-15T01:29:04;7.97;;;7.37;;
4027;SDS011;2028;51.346;12.396;2023-04-15T01:31:31;8.20;;;7.60;;
4027;SDS011;2028;51.346;12.396;2023-04-15T01:33:58;7.60;;;7.00;;
4027;SDS011;2028;51.346;12.396;2023-04-15T01:36:24;8.13;;;7.53;;
4027;SDS011;2028;51.346;12.396;2023-04-15T01:38:50;8.00;;;7.33;;
4027;SDS011;2028;51.346;12.396;2023-04-15T01:41:20;8.23;;;7.43;;
4027;SDS011;2028;51.346;12.396;2023-04-15T01:43:50;7.70;;;7.10;;
4027;SDS011;2028;51.346;12.396;2023-04-15T01:46:16;8.07;;;7.47;;
4027;SDS011;2028;51.346;12.396;2023-04-15T01:48:43;8.33;;;7.73;;
4027;SDS011;2028;51.346;12.396;2023-04-15T01:51:09;8.27;;;7.57;;
4027;SDS011;2028;51.346;12.396;2023-04-15T01:56:12;8.47;;;7.77;;
4027;SDS011;2028;51.346;12.396;2023-04-15T01:58:38;8.17;;;7.50;;
4027;SDS011;2028;51.346;12.396;2023-04-15T02:01:05;8.20;;;7.40;;
4027;SDS011;2028;51.346;12.396;2023-04-15T02:03:31;8.77;;;8.07;;
4027;SDS011;2028;51.346;12.396;2023-04-15T02:05:58;8.00;;;7.40;;
4027;SDS011;2028;51.346;12.396;2023-04-15T02:08:24;7.77;;;7.17;;
4027;SDS011;2028;51.346;12.396;2023-04-15T02:10:51;8.00;;;7.30;;
4027;SDS011;2028;51.346;12.396;2023-04-15T02:13:17;8.00;;;7.40;;
4027;SDS011;2028;51.346;12.396;2023-04-15T02:15:47;8.23;;;7.60;;
4027;SDS011;2028;51.346;12.396;2023-04-15T02:18:16;8.37;;;7.67;;
4027;SDS011;2028;51.346;12.396;2023-04-15T02:23:06;8.03;;;7.27;;
4027;SDS011;2028;51.346;12.396;2023-04-15T02:25:32;7.10;;;6.50;;
4027;SDS011;2028;51.346;12.396;2023-04-15T02:27:59;8.07;;;7.37;;
4027;SDS011;2028;51.346;12.396;2023-04-15T02:30:25;7.10;;;6.53;;
4027;SDS011;2028;51.346;12.396;2023-04-15T02:32:52;7.07;;;6.57;;
4027;SDS011;2028;51.346;12.396;2023-04-15T02:35:18;7.03;;;6.50;;
4027;SDS011;2028;51.346;12.396;2023-04-15T02:37:44;7.33;;;6.73;;
4027;SDS011;2028;51.346;12.396;2023-04-15T02:42:33;6.80;;;6.30;;
4027;SDS011;2028;51.346;12.396;2023-04-15T02:44:59;6.63;;;6.13;;
4027;SDS011;2028;51.346;12.396;2023-04-15T02:47:25;6.57;;;6.07;;
4027;SDS011;2028;51.346;12.396;2023-04-15T02:49:52;6.60;;;6.10;;
4027;SDS011;2028;51.346;12.396;2023-04-15T02:52:18;6.43;;;5.93;;
4027;SDS011;2028;51.346;12.396;2023-04-15T02:54:47;6.40;;;5.90;;
4027;SDS011;2028;51.346;12.396;2023-04-15T02:57:13;6.37;;;5.87;;
4027;SDS011;2028;51.346;12.396;2023-04-15T02:59:39;5.87;;;5.47;;
4027;SDS011;2028;51.346;12.396;2023-04-15T03:02:05;6.07;;;5.67;;
4027;SDS011;2028;51.346;12.396;2023-04-15T03:04:32;6.00;;;5.50;;
4027;SDS011;2028;51.346;12.396;2023-04-15T03:06:59;5.87;;;5.47;;
4027;SDS011;2028;51.346;12.396;2023-04-15T03:09:25;6.17;;;5.67;;
4027;SDS011;2028;51.346;12.396;2023-04-15T03:11:52;5.77;;;5.37;;
4027;SDS011;2028;51.346;12.396;2023-04-15T03:14:18;6.80;;;6.30;;
4027;SDS011;2028;51.346;12.396;2023-04-15T03:16:45;6.40;;;5.90;;
4027;SDS011;2028;51.346;12.396;2023-04-15T03:19:12;6.60;;;6.10;;
4027;SDS011;2028;51.346;12.396;2023-04-15T03:21:38;6.93;;;6.43;;
4027;SDS011;2028;51.346;12.396;2023-04-15T03:24:04;6.87;;;6.37;;
4027;SDS011;2028;51.346;12.396;2023-04-15T03:26:31;7.43;;;6.83;;
4027;SDS011;2028;51.346;12.396;2023-04-15T03:28:58;7.57;;;6.97;;
4027;SDS011;2028;51.346;12.396;2023-04-15T03:31:24;7.93;;;7.23;;
4027;SDS011;2028;51.346;12.396;2023-04-15T03:33:51;8.37;;;7.67;;
4027;SDS011;2028;51.346;12.396;2023-04-15T03:36:17;8.73;;;8.03;;
4027;SDS011;2028;51.346;12.396;2023-04-15T03:38:44;8.73;;;8.03;;
4027;SDS011;2028;51.346;12.396;2023-04-15T03:41:10;9.60;;;8.80;;
4027;SDS011;2028;51.346;12.396;2023-04-15T03:43:36;8.90;;;8.13;;
4027;SDS011;2028;51.346;12.396;2023-04-15T03:46:02;8.90;;;8.20;;
4027;SDS011;2028;51.346;12.396;2023-04-15T03:48:29;10.13;;;9.23;;
4027;SDS011;2028;51.346;12.396;2023-04-15T03:50:55;9.43;;;8.63;;
4027;SDS011;2028;51.346;12.396;2023-04-15T03:53:21;10.50;;;9.63;;
4027;SDS011;2028;51.346;12.396;2023-04-15T03:55:48;9.67;;;8.87;;
4027;SDS011;2028;51.346;12.396;2023-04-15T03:58:17;9.47;;;8.67;;
4027;SDS011;2028;51.346;12.396;2023-04-15T04:00:43;9.83;;;9.03;;
4027;SDS011;2028;51.346;12.396;2023-04-15T04:03:08;9.43;;;8.67;;
4027;SDS011;2028;51.346;12.396;2023-04-15T04:08:22;9.48;;;8.60;;
4027;SDS011;2028;51.346;12.396;2023-04-15T04:10:48;10.03;;;9.23;;
4027;SDS011;2028;51.346;12.396;2023-04-15T04:13:14;9.67;;;8.87;;
4027;SDS011;2028;51.346;12.396;2023-04-15T04:15:41;9.40;;;8.67;;
4027;SDS011;2028;51.346;12.396;2023-04-15T04:18:07;10.73;;;8.73;;
4027;SDS011;2028;51.346;12.396;2023-04-15T04:20:33;9.77;;;8.97;;
4027;SDS011;2028;51.346;12.396;2023-04-15T04:22:59;8.97;;;8.27;;
4027;SDS011;2028;51.346;12.396;2023-04-15T04:25:25;8.83;;;8.13;;
4027;SDS011;2028;51.346;12.396;2023-04-15T04:27:52;9.87;;;9.07;;
4027;SDS011;2028;51.346;12.396;2023-04-15T04:30:18;8.88;;;8.15;;
4027;SDS011;2028;51.346;12.396;2023-04-15T04:32:44;9.70;;;8.90;;
4027;SDS011;2028;51.346;12.396;2023-04-15T04:35:10;9.85;;;9.05;;
4027;SDS011;2028;51.346;12.396;2023-04-15T04:37:37;9.63;;;8.83;;
4027;SDS011;2028;51.346;12.396;2023-04-15T04:40:03;9.13;;;8.43;;
4027;SDS011;2028;51.346;12.396;2023-04-15T04:42:29;9.57;;;8.77;;
4027;SDS011;2028;51.346;12.396;2023-04-15T04:44:56;9.10;;;8.40;;
4027;SDS011;2028;51.346;12.396;2023-04-15T04:47:22;9.17;;;8.47;;
4027;SDS011;2028;51.346;12.396;2023-04-15T04:49:48;8.57;;;7.90;;
4027;SDS011;2028;51.346;12.396;2023-04-15T04:52:14;9.85;;;9.05;;
4027;SDS011;2028;51.346;12.396;2023-04-15T04:54:40;9.25;;;8.55;;
4027;SDS011;2028;51.346;12.396;2023-04-15T04:57:06;9.47;;;8.77;;
4027;SDS011;2028;51.346;12.396;2023-04-15T04:59:32;10.60;;;9.80;;
4027;SDS011;2028;51.346;12.396;2023-04-15T05:01:58;10.13;;;9.33;;
4027;SDS011;2028;51.346;12.396;2023-04-15T05:04:25;10.63;;;9.73;;
4027;SDS011;2028;51.346;12.396;2023-04-15T05:06:51;10.47;;;9.67;;
4027;SDS011;2028;51.346;12.396;2023-04-15T05:09:17;10.20;;;9.40;;
4027;SDS011;2028;51.346;12.396;2023-04-15T05:11:43;9.73;;;9.03;;
4027;SDS011;2028;51.346;12.396;2023-04-15T05:14:10;9.53;;;8.83;;
4027;SDS011;2028;51.346;12.396;2023-04-15T05:16:36;10.17;;;9.37;;
4027;SDS011;2028;51.346;12.396;2023-04-15T05:19:02;10.43;;;9.63;;
4027;SDS011;2028;51.346;12.396;2023-04-15T05:21:27;10.43;;;9.53;;
4027;SDS011;2028;51.346;12.396;2023-04-15T05:23:53;10.73;;;9.83;;
4027;SDS011;2028;51.346;12.396;2023-04-15T05:26:19;9.97;;;9.17;;
4027;SDS011;2028;51.346;12.396;2023-04-15T05:28:46;9.73;;;9.03;;
4027;SDS011;2028;51.346;12.396;2023-04-15T05:33:55;9.30;;;8.60;;
4027;SDS011;2028;51.346;12.396;2023-04-15T05:36:21;9.93;;;9.10;;
4027;SDS011;2028;51.346;12.396;2023-04-15T05:38:47;10.33;;;8.90;;
4027;SDS011;2028;51.346;12.396;2023-04-15T05:41:13;9.90;;;9.00;;
4027;SDS011;2028;51.346;12.396;2023-04-15T05:43:40;9.23;;;8.53;;
4027;SDS011;2028;51.346;12.396;2023-04-15T05:46:06;9.45;;;8.68;;
4027;SDS011;2028;51.346;12.396;2023-04-15T05:48:33;8.77;;;8.07;;
4027;SDS011;2028;51.346;12.396;2023-04-15T05:50:59;8.53;;;7.83;;
4027;SDS011;2028;51.346;12.396;2023-04-15T05:53:25;8.90;;;8.20;;
4027;SDS011;2028;51.346;12.396;2023-04-15T05:55:51;9.60;;;8.80;;
4027;SDS011;2028;51.346;12.396;2023-04-15T05:58:17;9.00;;;8.30;;
4027;SDS011;2028;51.346;12.396;2023-04-15T06:00:43;8.30;;;7.60;;
4027;SDS011;2028;51.346;12.396;2023-04-15T06:03:10;8.53;;;7.87;;
4027;SDS011;2028;51.346;12.396;2023-04-15T06:05:37;7.93;;;7.27;;
4027;SDS011;2028;51.346;12.396;2023-04-15T06:08:03;7.87;;;7.27;;
4027;SDS011;2028;51.346;12.396;2023-04-15T06:10:30;7.47;;;6.87;;
4027;SDS011;2028;51.346;12.396;2023-04-15T06:13:03;8.13;;;7.43;;
4027;SDS011;2028;51.346;12.396;2023-04-15T06:15:29;7.77;;;7.17;;
4027;SDS011;2028;51.346;12.396;2023-04-15T06:17:56;7.90;;;7.20;;
4027;SDS011;2028;51.346;12.396;2023-04-15T06:20:22;7.77;;;7.17;;
4027;SDS011;2028;51.346;12.396;2023-04-15T06:22:48;7.40;;;6.90;;
4027;SDS011;2028;51.346;12.396;2023-04-15T06:25:15;7.60;;;7.00;;
4027;SDS011;2028;51.346;12.396;2023-04-15T06:27:41;7.97;;;7.30;;
4027;SDS011;2028;51.346;12.396;2023-04-15T06:30:08;7.17;;;6.67;;
4027;SDS011;2028;51.346;12.396;2023-04-15T06:32:34;6.60;;;6.00;;
4027;SDS011;2028;51.346;12.396;2023-04-15T06:35:01;7.63;;;7.03;;
4027;SDS011;2028;51.346;12.396;2023-04-15T06:37:27;7.37;;;6.77;;
4027;SDS011;2028;51.346;12.396;2023-04-15T06:39:53;6.83;;;6.33;;
4027;SDS011;2028;51.346;12.396;2023-04-15T06:42:20;6.90;;;6.40;;
4027;SDS011;2028;51.346;12.396;2023-04-15T06:44:47;7.83;;;7.23;;
4027;SDS011;2028;51.346;12.396;2023-04-15T06:47:13;7.50;;;6.90;;
4027;SDS011;2028;51.346;12.396;2023-04-15T06:49:39;8.40;;;7.70;;
4027;SDS011;2028;51.346;12.396;2023-04-15T06:52:07;8.43;;;7.73;;
4027;SDS011;2028;51.346;12.396;2023-04-15T06:54:35;8.30;;;7.60;;
4027;SDS011;2028;51.346;12.396;2023-04-15T06:57:01;8.67;;;7.97;;
4027;SDS011;2028;51.346;12.396;2023-04-15T06:59:27;9.70;;;8.70;;
4027;SDS011;2028;51.346;12.396;2023-04-15T07:01:53;9.17;;;8.27;;
4027;SDS011;2028;51.346;12.396;2023-04-15T07:04:20;10.23;;;9.23;;
4027;SDS011;2028;51.346;12.396;2023-04-15T07:06:46;10.00;;;9.10;;
4027;SDS011;2028;51.346;12.396;2023-04-15T07:09:12;9.50;;;8.70;;
4027;SDS011;2028;51.346;12.396;2023-04-15T07:11:38;10.00;;;9.03;;
4027;SDS011;2028;51.346;12.396;2023-04-15T07:14:05;10.53;;;9.63;;
4027;SDS011;2028;51.346;12.396;2023-04-15T07:16:31;10.73;;;9.83;;
4027;SDS011;2028;51.346;12.396;2023-04-15T07:18:57;10.33;;;9.47;;
4027;SDS011;2028;51.346;12.396;2023-04-15T07:21:24;11.30;;;10.30;;
4027;SDS011;2028;51.346;12.396;2023-04-15T07:23:52;10.77;;;9.83;;
4027;SDS011;2028;51.346;12.396;2023-04-15T07:26:18;12.10;;;11.00;;
4027;SDS011;2028;51.346;12.396;2023-04-15T07:28:44;12.13;;;11.00;;
4027;SDS011;2028;51.346;12.396;2023-04-15T07:31:11;15.37;;;12.90;;
4027;SDS011;2028;51.346;12.396;2023-04-15T07:33:39;14.57;;;12.87;;
4027;SDS011;2028;51.346;12.396;2023-04-15T07:36:05;12.37;;;11.27;;
4027;SDS011;2028;51.346;12.396;2023-04-15T07:38:31;12.60;;;11.43;;
4027;SDS011;2028;51.346;12.396;2023-04-15T07:40:57;12.93;;;11.73;;
4027;SDS011;2028;51.346;12.396;2023-04-15T07:43:23;11.97;;;10.80;;
4027;SDS011;2028;51.346;12.396;2023-04-15T07:45:50;13.47;;;12.27;;
4027;SDS011;2028;51.346;12.396;2023-04-15T07:48:17;12.73;;;11.53;;
4027;SDS011;2028;51.346;12.396;2023-04-15T07:50:43;12.53;;;11.33;;
4027;SDS011;2028;51.346;12.396;2023-04-15T07:53:10;13.00;;;11.80;;
4027;SDS011;2028;51.346;12.396;2023-04-15T07:55:36;12.90;;;11.77;;
4027;SDS011;2028;51.346;12.396;2023-04-15T07:58:02;13.67;;;12.37;;
4027;SDS011;2028;51.346;12.396;2023-04-15T08:00:29;13.83;;;12.60;;
4027;SDS011;2028;51.346;12.396;2023-04-15T08:02:56;13.93;;;12.63;;
4027;SDS011;2028;51.346;12.396;2023-04-15T08:05:24;14.70;;;13.30;;
4027;SDS011;2028;51.346;12.396;2023-04-15T08:07:50;15.27;;;13.87;;
4027;SDS011;2028;51.346;12.396;2023-04-15T08:10:17;14.00;;;12.73;;
4027;SDS011;2028;51.346;12.396;2023-04-15T08:12:43;14.30;;;13.00;;
4027;SDS011;2028;51.346;12.396;2023-04-15T08:15:13;14.30;;;12.90;;
4027;SDS011;2028;51.346;12.396;2023-04-15T08:17:39;13.83;;;12.50;;
4027;SDS011;2028;51.346;12.396;2023-04-15T08:20:06;13.80;;;12.37;;
4027;SDS011;2028;51.346;12.396;2023-04-15T08:22:32;13.53;;;12.33;;
4027;SDS011;2028;51.346;12.396;2023-04-15T08:24:59;13.57;;;12.27;;
4027;SDS011;2028;51.346;12.396;2023-04-15T08:27:26;13.97;;;12.67;;
4027;SDS011;2028;51.346;12.396;2023-04-15T08:29:52;14.10;;;12.67;;
4027;SDS011;2028;51.346;12.396;2023-04-15T08:32:18;14.67;;;13.27;;
4027;SDS011;2028;51.346;12.396;2023-04-15T08:34:47;14.90;;;13.33;;
4027;SDS011;2028;51.346;12.396;2023-04-15T08:37:13;17.33;;;15.33;;
4027;SDS011;2028;51.346;12.396;2023-04-15T08:39:39;16.77;;;15.03;;
4027;SDS011;2028;51.346;12.396;2023-04-15T08:42:08;20.97;;;14.10;;
4027;SDS011;2028;51.346;12.396;2023-04-15T08:44:36;15.57;;;13.97;;
4027;SDS011;2028;51.346;12.396;2023-04-15T08:47:06;15.63;;;13.90;;
4027;SDS011;2028;51.346;12.396;2023-04-15T08:49:34;14.83;;;13.30;;
4027;SDS011;2028;51.346;12.396;2023-04-15T08:52:05;15.60;;;14.20;;
4027;SDS011;2028;51.346;12.396;2023-04-15T08:54:31;16.00;;;14.50;;
4027;SDS011;2028;51.346;12.396;2023-04-15T08:56:58;15.10;;;13.43;;
4027;SDS011;2028;51.346;12.396;2023-04-15T08:59:27;15.60;;;14.07;;
4027;SDS011;2028;51.346;12.396;2023-04-15T09:01:56;16.03;;;14.43;;
4027;SDS011;2028;51.346;12.396;2023-04-15T09:04:23;21.30;;;18.13;;
4027;SDS011;2028;51.346;12.396;2023-04-15T09:06:49;17.87;;;15.93;;
4027;SDS011;2028;51.346;12.396;2023-04-15T09:09:16;17.37;;;15.53;;
4027;SDS011;2028;51.346;12.396;2023-04-15T09:11:42;18.13;;;16.33;;
4027;SDS011;2028;51.346;12.396;2023-04-15T09:14:08;18.20;;;16.23;;
4027;SDS011;2028;51.346;12.396;2023-04-15T09:19:23;19.10;;;17.20;;
4027;SDS011;2028;51.346;12.396;2023-04-15T09:21:51;18.87;;;16.97;;
4027;SDS011;2028;51.346;12.396;2023-04-15T09:24:18;18.50;;;16.60;;
4027;SDS011;2028;51.346;12.396;2023-04-15T09:26:45;22.83;;;18.03;;
4027;SDS011;2028;51.346;12.396;2023-04-15T09:29:12;23.50;;;18.37;;
4027;SDS011;2028;51.346;12.396;2023-04-15T09:31:39;27.27;;;19.50;;
4027;SDS011;2028;51.346;12.396;2023-04-15T09:34:06;26.17;;;19.67;;
4027;SDS011;2028;51.346;12.396;2023-04-15T09:36:51;25.17;;;20.93;;
4027;SDS011;2028;51.346;12.396;2023-04-15T09:39:19;23.17;;;20.03;;
4027;SDS011;2028;51.346;12.396;2023-04-15T09:41:46;28.20;;;20.87;;
4027;SDS011;2028;51.346;12.396;2023-04-15T09:44:24;22.63;;;20.33;;
4027;SDS011;2028;51.346;12.396;2023-04-15T09:46:51;24.00;;;20.60;;
4027;SDS011;2028;51.346;12.396;2023-04-15T09:49:17;22.57;;;20.40;;
4027;SDS011;2028;51.346;12.396;2023-04-15T09:51:45;21.80;;;19.40;;
4027;SDS011;2028;51.346;12.396;2023-04-15T09:54:11;23.50;;;21.00;;
4027;SDS011;2028;51.346;12.396;2023-04-15T09:56:38;24.53;;;20.83;;
4027;SDS011;2028;51.346;12.396;2023-04-15T09:59:08;24.63;;;22.13;;
4027;SDS011;2028;51.346;12.396;2023-04-15T10:01:34;26.03;;;22.30;;
4027;SDS011;2028;51.346;12.396;2023-04-15T10:04:02;25.03;;;22.23;;
4027;SDS011;2028;51.346;12.396;2023-04-15T10:06:30;24.00;;;21.67;;
4027;SDS011;2028;51.346;12.396;2023-04-15T10:08:57;26.57;;;23.77;;
4027;SDS011;2028;51.346;12.396;2023-04-15T10:11:25;29.90;;;23.13;;
4027;SDS011;2028;51.346;12.396;2023-04-15T10:13:53;34.67;;;24.20;;
4027;SDS011;2028;51.346;12.396;2023-04-15T10:16:20;26.47;;;23.13;;
4027;SDS011;2028;51.346;12.396;2023-04-15T10:18:50;32.47;;;25.07;;
4027;SDS011;2028;51.346;12.396;2023-04-15T10:21:23;29.57;;;26.50;;
4027;SDS011;2028;51.346;12.396;2023-04-15T10:23:50;27.60;;;24.73;;
4027;SDS011;2028;51.346;12.396;2023-04-15T10:26:16;28.30;;;25.50;;
4027;SDS011;2028;51.346;12.396;2023-04-15T10:28:43;28.30;;;25.40;;
4027;SDS011;2028;51.346;12.396;2023-04-15T10:31:11;27.90;;;25.03;;
4027;SDS011;2028;51.346;12.396;2023-04-15T10:33:39;27.53;;;24.87;;
4027;SDS011;2028;51.346;12.396;2023-04-15T10:36:07;28.40;;;25.50;;
4027;SDS011;2028;51.346;12.396;2023-04-15T10:43:39;25.83;;;23.33;;
4027;SDS011;2028;51.346;12.396;2023-04-15T10:46:05;28.03;;;25.23;;
4027;SDS011;2028;51.346;12.396;2023-04-15T10:48:32;26.97;;;24.37;;
4027;SDS011;2028;51.346;12.396;2023-04-15T10:51:01;27.67;;;24.93;;
4027;SDS011;2028;51.346;12.396;2023-04-15T10:53:28;26.03;;;23.13;;
4027;SDS011;2028;51.346;12.396;2023-04-15T10:55:56;33.17;;;24.57;;
4027;SDS011;2028;51.346;12.396;2023-04-15T10:58:23;27.53;;;24.20;;
4027;SDS011;2028;51.346;12.396;2023-04-15T11:00:51;26.93;;;23.87;;
4027;SDS011;2028;51.346;12.396;2023-04-15T11:03:37;28.10;;;25.13;;
4027;SDS011;2028;51.346;12.396;2023-04-15T11:06:04;27.43;;;24.63;;
4027;SDS011;2028;51.346;12.396;2023-04-15T11:11:16;26.17;;;23.47;;
4027;SDS011;2028;51.346;12.396;2023-04-15T11:13:49;28.03;;;25.33;;
4027;SDS011;2028;51.346;12.396;2023-04-15T11:16:16;25.93;;;23.20;;
4027;SDS011;2028;51.346;12.396;2023-04-15T11:18:52;25.77;;;23.27;;
4027;SDS011;2028;51.346;12.396;2023-04-15T11:21:19;25.67;;;23.17;;
4027;SDS011;2028;51.346;12.396;2023-04-15T11:23:49;24.60;;;22.20;;
4027;SDS011;2028;51.346;12.396;2023-04-15T11:26:16;24.57;;;22.17;;
4027;SDS011;2028;51.346;12.396;2023-04-15T11:28:43;25.30;;;22.90;;
4027;SDS011;2028;51.346;12.396;2023-04-15T11:31:10;24.50;;;22.10;;
4027;SDS011;2028;51.346;12.396;2023-04-15T11:33:43;22.50;;;20.20;;
4027;SDS011;2028;51.346;12.396;2023-04-15T11:36:10;21.37;;;19.27;;
4027;SDS011;2028;51.346;12.396;2023-04-15T11:38:41;22.87;;;20.57;;
4027;SDS011;2028;51.346;12.396;2023-04-15T11:41:07;21.63;;;19.57;;
4027;SDS011;2028;51.346;12.396;2023-04-15T11:43:33;22.60;;;20.33;;
4027;SDS011;2028;51.346;12.396;2023-04-15T11:46:00;20.73;;;18.77;;
4027;SDS011;2028;51.346;12.396;2023-04-15T11:48:27;22.10;;;20.03;;
4027;SDS011;2028;51.346;12.396;2023-04-15T11:50:55;20.97;;;19.07;;
4027;SDS011;2028;51.346;12.396;2023-04-15T11:53:22;20.43;;;18.27;;
4027;SDS011;2028;51.346;12.396;2023-04-15T11:55:50;21.13;;;19.10;;
4027;SDS011;2028;51.346;12.396;2023-04-15T11:58:17;18.63;;;16.93;;
4027;SDS011;2028;51.346;12.396;2023-04-15T12:00:51;17.60;;;16.00;;
4027;SDS011;2028;51.346;12.396;2023-04-15T12:11:19;16.77;;;15.20;;
4027;SDS011;2028;51.346;12.396;2023-04-15T12:13:46;16.20;;;14.70;;
4027;SDS011;2028;51.346;12.396;2023-04-15T12:16:17;17.27;;;15.67;;
4027;SDS011;2028;51.346;12.396;2023-04-15T12:18:47;16.30;;;14.80;;
4027;SDS011;2028;51.346;12.396;2023-04-15T12:21:17;15.23;;;13.90;;
4027;SDS011;2028;51.346;12.396;2023-04-15T12:23:48;14.30;;;12.97;;
4027;SDS011;2028;51.346;12.396;2023-04-15T12:26:16;14.73;;;13.43;;
4027;SDS011;2028;51.346;12.396;2023-04-15T12:28:42;14.87;;;13.63;;
4027;SDS011;2028;51.346;12.396;2023-04-15T12:31:11;15.37;;;13.97;;
4027;SDS011;2028;51.346;12.396;2023-04-15T12:33:38;14.37;;;13.17;;
4027;SDS011;2028;51.346;12.396;2023-04-15T12:36:05;13.37;;;12.23;;
4027;SDS011;2028;51.346;12.396;2023-04-15T12:38:45;12.50;;;11.40;;
4027;SDS011;2028;51.346;12.396;2023-04-15T12:41:11;13.73;;;12.43;;
4027;SDS011;2028;51.346;12.396;2023-04-15T12:43:38;12.43;;;11.37;;
4027;SDS011;2028;51.346;12.396;2023-04-15T12:46:04;12.17;;;11.17;;
4027;SDS011;2028;51.346;12.396;2023-04-15T12:48:33;10.93;;;10.03;;
4027;SDS011;2028;51.346;12.396;2023-04-15T12:50:59;10.40;;;9.40;;
4027;SDS011;2028;51.346;12.396;2023-04-15T12:53:26;12.03;;;10.93;;
4027;SDS011;2028;51.346;12.396;2023-04-15T12:55:52;10.63;;;9.73;;
4027;SDS011;2028;51.346;12.396;2023-04-15T12:58:19;11.17;;;10.27;;
4027;SDS011;2028;51.346;12.396;2023-04-15T13:00:46;10.27;;;9.40;;
4027;SDS011;2028;51.346;12.396;2023-04-15T13:03:14;10.13;;;9.33;;
4027;SDS011;2028;51.346;12.396;2023-04-15T13:05:40;10.13;;;9.33;;
4027;SDS011;2028;51.346;12.396;2023-04-15T13:08:07;11.10;;;10.20;;
4027;SDS011;2028;51.346;12.396;2023-04-15T13:10:34;9.80;;;9.00;;
4027;SDS011;2028;51.346;12.396;2023-04-15T13:13:03;11.10;;;10.13;;
4027;SDS011;2028;51.346;12.396;2023-04-15T13:15:30;10.23;;;9.33;;
4027;SDS011;2028;51.346;12.396;2023-04-15T13:17:56;8.80;;;8.10;;
4027;SDS011;2028;51.346;12.396;2023-04-15T13:20:23;8.30;;;7.60;;
4027;SDS011;2028;51.346;12.396;2023-04-15T13:24:07;7.53;;;6.93;;
4027;SDS011;2028;51.346;12.396;2023-04-15T13:26:33;7.57;;;6.97;;
4027;SDS011;2028;51.346;12.396;2023-04-15T13:29:00;7.57;;;7.03;;
4027;SDS011;2028;51.346;12.396;2023-04-15T13:31:26;8.70;;;7.90;;
4027;SDS011;2028;51.346;12.396;2023-04-15T13:33:53;7.77;;;7.17;;
4027;SDS011;2028;51.346;12.396;2023-04-15T13:36:19;8.23;;;7.57;;
4027;SDS011;2028;51.346;12.396;2023-04-15T13:38:45;8.37;;;7.77;;
4027;SDS011;2028;51.346;12.396;2023-04-15T13:41:12;8.67;;;7.97;;
4027;SDS011;2028;51.346;12.396;2023-04-15T13:43:38;9.27;;;8.43;;
4027;SDS011;2028;51.346;12.396;2023-04-15T13:46:05;8.13;;;7.53;;
4027;SDS011;2028;51.346;12.396;2023-04-15T13:48:31;9.27;;;8.57;;
4027;SDS011;2028;51.346;12.396;2023-04-15T13:50:57;9.13;;;8.43;;
4027;SDS011;2028;51.346;12.396;2023-04-15T13:53:23;8.70;;;7.90;;
4027;SDS011;2028;51.346;12.396;2023-04-15T13:55:49;7.50;;;6.80;;
4027;SDS011;2028;51.346;12.396;2023-04-15T13:58:15;7.63;;;7.03;;
4027;SDS011;2028;51.346;12.396;2023-04-15T14:00:41;8.03;;;7.43;;
4027;SDS011;2028;51.346;12.396;2023-04-15T14:03:07;8.47;;;7.77;;
4027;SDS011;2028;51.346;12.396;2023-04-15T14:05:33;8.03;;;7.33;;
4027;SDS011;2028;51.346;12.396;2023-04-15T14:07:59;7.63;;;6.93;;
4027;SDS011;2028;51.346;12.396;2023-04-15T14:10:25;7.47;;;6.87;;
4027;SDS011;2028;51.346;12.396;2023-04-15T14:12:51;8.53;;;7.77;;
4027;SDS011;2028;51.346;12.396;2023-04-15T14:15:17;9.50;;;8.60;;
4027;SDS011;2028;51.346;12.396;2023-04-15T14:17:44;8.13;;;7.43;;
4027;SDS011;2028;51.346;12.396;2023-04-15T14:20:10;7.80;;;7.20;;
4027;SDS011;2028;51.346;12.396;2023-04-15T14:22:37;8.87;;;8.17;;
4027;SDS011;2028;51.346;12.396;2023-04-15T14:25:03;9.07;;;8.37;;
4027;SDS011;2028;51.346;12.396;2023-04-15T14:27:30;8.40;;;7.70;;
4027;SDS011;2028;51.346;12.396;2023-04-15T14:29:56;8.20;;;7.60;;
4027;SDS011;2028;51.346;12.396;2023-04-15T14:32:24;12.30;;;9.87;;
4027;SDS011;2028;51.346;12.396;2023-04-15T14:34:51;9.00;;;8.20;;
4027;SDS011;2028;51.346;12.396;2023-04-15T14:37:17;8.43;;;7.80;;
4027;SDS011;2028;51.346;12.396;2023-04-15T14:39:44;8.13;;;7.43;;
4027;SDS011;2028;51.346;12.396;2023-04-15T14:42:10;8.87;;;8.07;;
4027;SDS011;2028;51.346;12.396;2023-04-15T14:44:36;8.80;;;8.03;;
4027;SDS011;2028;51.346;12.396;2023-04-15T14:47:02;8.37;;;7.70;;
4027;SDS011;2028;51.346;12.396;2023-04-15T14:49:28;8.47;;;7.73;;
4027;SDS011;2028;51.346;12.396;2023-04-15T14:51:55;8.80;;;8.10;;
4027;SDS011;2028;51.346;12.396;2023-04-15T14:54:21;8.60;;;7.80;;
4027;SDS011;2028;51.346;12.396;2023-04-15T14:56:47;8.13;;;7.47;;
4027;SDS011;2028;51.346;12.396;2023-04-15T14:59:14;9.00;;;8.30;;
4027;SDS011;2028;51.346;12.396;2023-04-15T15:01:40;8.60;;;7.87;;
4027;SDS011;2028;51.346;12.396;2023-04-15T15:04:06;9.10;;;8.40;;
4027;SDS011;2028;51.346;12.396;2023-04-15T15:06:34;8.90;;;8.10;;
4027;SDS011;2028;51.346;12.396;2023-04-15T15:09:00;8.70;;;8.00;;
4027;SDS011;2028;51.346;12.396;2023-04-15T15:11:27;8.60;;;8.00;;
4027;SDS011;2028;51.346;12.396;2023-04-15T15:13:54;9.67;;;8.87;;
4027;SDS011;2028;51.346;12.396;2023-04-15T15:16:20;9.27;;;8.30;;
4027;SDS011;2028;51.346;12.396;2023-04-15T15:18:46;9.67;;;8.67;;
4027;SDS011;2028;51.346;12.396;2023-04-15T15:21:13;9.93;;;9.13;;
4027;SDS011;2028;51.346;12.396;2023-04-15T15:23:39;8.97;;;8.27;;